Etusivu
METAR-TAF:

METAR-TAF

Lentoasemat :

De Aar, Etelä-Afrikka

Leveyspiiri: 30-40-29S, Pituuspiiri: 23-59-57E, korkeus merenpinnasta: 1286 m

Tämänhetkinen sää

Tämä raportti tehtiin 11 tuntia ja 31 minuuttia sitten, kello 06.46 UTC
Tuuli 10 kn koillisesta
Lämpötila 19°C
Kosteus 46%
Ilmanpaine 1024 hPa

METAR: FADY 050646Z AUTO 05010KT //// // ////// 19/07 Q1024

Aika: 20:17 (18:17 UTC)


TAF: puuttuu

Säähavainnot ja -ennusteet yli 4000 lentoasemalta (METAR- ja TAF-raportit).

Käytössä olevat sääasemat on merkitty karttaan keltaisilla ja punaisilla pisteillä.

Aseta hiiri pisteen päälle nähdäksesi sääaseman nimen.

Klikkaa sitten nähdäksesi säähavainnot ja -ennusteet.

Kartan vaihtaminen: klikkaa mustalla rastilla varustettuja vihreitä pisteitä, niin voit zoomata sisään; viivalla varustettua vihreää pistettä, niin voit zoomata ulos tai vihreitä nuolia, niin pääset viereisille kartoille.


METAR-TAF: